sensor_id;sensor_type;location;lat;lon;timestamp;pressure;altitude;pressure_sealevel;temperature;humidity
57114;BME280;42994;51.606;9.988;2022-12-18T00:00:39;100432.72;;;-12.19;100.00
57114;BME280;42994;51.606;9.988;2022-12-18T00:03:06;100435.31;;;-12.17;100.00
57114;BME280;42994;51.606;9.988;2022-12-18T00:05:33;100442.16;;;-12.16;100.00
57114;BME280;42994;51.606;9.988;2022-12-18T00:08:00;100442.91;;;-12.02;100.00
57114;BME280;42994;51.606;9.988;2022-12-18T00:10:27;100441.22;;;-12.06;100.00
57114;BME280;42994;51.606;9.988;2022-12-18T00:12:54;100439.56;;;-12.13;100.00
57114;BME280;42994;51.606;9.988;2022-12-18T00:15:22;100435.47;;;-12.35;100.00
57114;BME280;42994;51.606;9.988;2022-12-18T00:17:48;100439.72;;;-12.30;100.00
57114;BME280;42994;51.606;9.988;2022-12-18T00:20:15;100441.56;;;-12.49;100.00
57114;BME280;42994;51.606;9.988;2022-12-18T00:22:50;100435.31;;;-12.17;100.00
57114;BME280;42994;51.606;9.988;2022-12-18T00:25:16;100447.38;;;-12.19;100.00
57114;BME280;42994;51.606;9.988;2022-12-18T00:27:43;100446.63;;;-12.32;100.00
57114;BME280;42994;51.606;9.988;2022-12-18T00:30:11;100460.44;;;-12.38;100.00
57114;BME280;42994;51.606;9.988;2022-12-18T00:32:39;100450.31;;;-12.64;100.00
57114;BME280;42994;51.606;9.988;2022-12-18T00:35:06;100454.63;;;-12.66;100.00
57114;BME280;42994;51.606;9.988;2022-12-18T00:37:33;100460.69;;;-12.70;100.00
57114;BME280;42994;51.606;9.988;2022-12-18T00:40:00;100456.28;;;-12.57;100.00
57114;BME280;42994;51.606;9.988;2022-12-18T00:42:27;100458.88;;;-12.62;100.00
57114;BME280;42994;51.606;9.988;2022-12-18T00:45:11;100468.31;;;-12.54;100.00
57114;BME280;42994;51.606;9.988;2022-12-18T00:47:40;100462.28;;;-12.53;100.00
57114;BME280;42994;51.606;9.988;2022-12-18T00:50:08;100473.47;;;-12.50;100.00
57114;BME280;42994;51.606;9.988;2022-12-18T00:52:35;100479.50;;;-12.52;100.00
57114;BME280;42994;51.606;9.988;2022-12-18T00:55:01;100473.47;;;-12.48;100.00
57114;BME280;42994;51.606;9.988;2022-12-18T00:57:28;100469.28;;;-12.68;100.00
57114;BME280;42994;51.606;9.988;2022-12-18T00:59:55;100469.97;;;-12.47;100.00
57114;BME280;42994;51.606;9.988;2022-12-18T01:02:21;100462.13;;;-12.32;100.00
57114;BME280;42994;51.606;9.988;2022-12-18T01:04:50;100467.22;;;-12.24;100.00
57114;BME280;42994;51.606;9.988;2022-12-18T01:07:18;100469.09;;;-12.42;100.00
57114;BME280;42994;51.606;9.988;2022-12-18T01:09:45;100474.31;;;-12.54;100.00
57114;BME280;42994;51.606;9.988;2022-12-18T01:12:11;100477.75;;;-12.50;100.00
57114;BME280;42994;51.606;9.988;2022-12-18T01:14:38;100476.88;;;-12.46;100.00
57114;BME280;42994;51.606;9.988;2022-12-18T01:17:05;100467.34;;;-12.41;100.00
57114;BME280;42994;51.606;9.988;2022-12-18T01:19:32;100466.56;;;-12.54;100.00
57114;BME280;42994;51.606;9.988;2022-12-18T01:22:00;100467.53;;;-12.63;100.00
57114;BME280;42994;51.606;9.988;2022-12-18T01:24:27;100471.03;;;-12.76;100.00
57114;BME280;42994;51.606;9.988;2022-12-18T01:26:55;100485.03;;;-13.20;100.00
57114;BME280;42994;51.606;9.988;2022-12-18T01:29:22;100496.91;;;-12.84;100.00
57114;BME280;42994;51.606;9.988;2022-12-18T01:31:49;100490.88;;;-12.84;100.00
57114;BME280;42994;51.606;9.988;2022-12-18T01:34:15;100496.00;;;-12.73;100.00
57114;BME280;42994;51.606;9.988;2022-12-18T01:36:42;100502.84;;;-12.69;100.00
57114;BME280;42994;51.606;9.988;2022-12-18T01:39:13;100494.22;;;-12.65;100.00
57114;BME280;42994;51.606;9.988;2022-12-18T01:41:41;100483.03;;;-12.69;100.00
57114;BME280;42994;51.606;9.988;2022-12-18T01:44:55;100486.47;;;-12.64;100.00
57114;BME280;42994;51.606;9.988;2022-12-18T01:47:26;100495.94;;;-12.67;100.00
57114;BME280;42994;51.606;9.988;2022-12-18T01:49:55;100488.13;;;-12.55;100.00
57114;BME280;42994;51.606;9.988;2022-12-18T01:52:24;100495.00;;;-12.52;100.00
57114;BME280;42994;51.606;9.988;2022-12-18T01:54:52;100492.41;;;-12.54;100.00
57114;BME280;42994;51.606;9.988;2022-12-18T01:57:20;100489.03;;;-12.64;100.00
57114;BME280;42994;51.606;9.988;2022-12-18T01:59:50;100475.16;;;-12.49;100.00
57114;BME280;42994;51.606;9.988;2022-12-18T02:02:19;100482.13;;;-12.55;100.00
57114;BME280;42994;51.606;9.988;2022-12-18T02:04:46;100489.94;;;-12.66;100.00
57114;BME280;42994;51.606;9.988;2022-12-18T02:07:17;100494.28;;;-12.78;100.00
57114;BME280;42994;51.606;9.988;2022-12-18T02:09:56;100493.53;;;-12.93;100.00
57114;BME280;42994;51.606;9.988;2022-12-18T02:12:30;100473.63;;;-12.76;100.00
57114;BME280;42994;51.606;9.988;2022-12-18T02:15:06;100481.34;;;-12.70;100.00
57114;BME280;42994;51.606;9.988;2022-12-18T02:17:41;100481.41;;;-12.79;100.00
57114;BME280;42994;51.606;9.988;2022-12-18T02:20:14;100493.28;;;-12.53;100.00
57114;BME280;42994;51.606;9.988;2022-12-18T02:22:49;100495.03;;;-12.60;100.00
57114;BME280;42994;51.606;9.988;2022-12-18T02:25:33;100486.47;;;-12.65;100.00
57114;BME280;42994;51.606;9.988;2022-12-18T02:28:12;100485.59;;;-12.63;100.00
57114;BME280;42994;51.606;9.988;2022-12-18T02:30:42;100483.84;;;-12.59;100.00
57114;BME280;42994;51.606;9.988;2022-12-18T02:33:11;100478.72;;;-12.62;100.00
57114;BME280;42994;51.606;9.988;2022-12-18T02:35:40;100476.25;;;-12.84;100.00
57114;BME280;42994;51.606;9.988;2022-12-18T02:38:07;100471.19;;;-13.07;100.00
57114;BME280;42994;51.606;9.988;2022-12-18T02:40:37;100462.56;;;-13.00;100.00
57114;BME280;42994;51.606;9.988;2022-12-18T02:43:09;100479.63;;;-12.71;100.00
57114;BME280;42994;51.606;9.988;2022-12-18T02:45:46;100486.44;;;-12.61;100.00
57114;BME280;42994;51.606;9.988;2022-12-18T02:48:14;100492.53;;;-12.69;100.00
57114;BME280;42994;51.606;9.988;2022-12-18T02:50:45;100484.78;;;-12.72;100.00
57114;BME280;42994;51.606;9.988;2022-12-18T02:53:24;100481.34;;;-12.76;100.00
57114;BME280;42994;51.606;9.988;2022-12-18T02:56:00;100496.91;;;-12.82;100.00
57114;BME280;42994;51.606;9.988;2022-12-18T02:58:35;100499.44;;;-12.73;100.00
57114;BME280;42994;51.606;9.988;2022-12-18T03:01:18;100496.91;;;-12.82;100.00
57114;BME280;42994;51.606;9.988;2022-12-18T03:03:50;100488.31;;;-12.81;100.00
57114;BME280;42994;51.606;9.988;2022-12-18T03:06:20;100490.00;;;-12.80;100.00
57114;BME280;42994;51.606;9.988;2022-12-18T03:08:52;100478.78;;;-12.74;100.00
57114;BME280;42994;51.606;9.988;2022-12-18T03:11:23;100481.28;;;-12.61;100.00
57114;BME280;42994;51.606;9.988;2022-12-18T03:14:09;100489.94;;;-12.74;100.00
57114;BME280;42994;51.606;9.988;2022-12-18T03:16:37;100496.94;;;-12.90;100.00
57114;BME280;42994;51.606;9.988;2022-12-18T03:19:08;100493.72;;;-13.37;100.00
57114;BME280;42994;51.606;9.988;2022-12-18T03:21:43;100493.66;;;-13.26;100.00
57114;BME280;42994;51.606;9.988;2022-12-18T03:24:15;100478.03;;;-12.92;100.00
57114;BME280;42994;51.606;9.988;2022-12-18T03:26:47;100480.56;;;-12.81;100.00
57114;BME280;42994;51.606;9.988;2022-12-18T03:29:18;100477.09;;;-12.80;100.00
57114;BME280;42994;51.606;9.988;2022-12-18T03:31:51;100473.66;;;-12.82;100.00
57114;BME280;42994;51.606;9.988;2022-12-18T03:34:22;100479.13;;;-13.41;100.00
57114;BME280;42994;51.606;9.988;2022-12-18T03:36:50;100482.56;;;-13.42;100.00
57114;BME280;42994;51.606;9.988;2022-12-18T03:39:19;100481.59;;;-13.22;100.00
57114;BME280;42994;51.606;9.988;2022-12-18T03:41:57;100473.00;;;-13.27;100.00
57114;BME280;42994;51.606;9.988;2022-12-18T03:44:36;100467.00;;;-13.26;100.00
57114;BME280;42994;51.606;9.988;2022-12-18T03:47:09;100471.28;;;-13.25;100.00
57114;BME280;42994;51.606;9.988;2022-12-18T03:49:40;100469.41;;;-12.89;100.00
57114;BME280;42994;51.606;9.988;2022-12-18T03:52:20;100459.13;;;-12.99;100.00
57114;BME280;42994;51.606;9.988;2022-12-18T03:54:48;100462.59;;;-13.06;100.00
57114;BME280;42994;51.606;9.988;2022-12-18T03:57:18;100474.75;;;-13.29;100.00
57114;BME280;42994;51.606;9.988;2022-12-18T03:59:51;100477.28;;;-13.19;100.00
57114;BME280;42994;51.606;9.988;2022-12-18T04:02:24;100473.00;;;-13.21;100.00
57114;BME280;42994;51.606;9.988;2022-12-18T04:04:52;100463.44;;;-13.07;100.00
57114;BME280;42994;51.606;9.988;2022-12-18T04:07:21;100476.44;;;-13.19;100.00
57114;BME280;42994;51.606;9.988;2022-12-18T04:09:48;100466.13;;;-13.25;100.00
57114;BME280;42994;51.606;9.988;2022-12-18T04:12:17;100454.84;;;-13.06;100.00
57114;BME280;42994;51.606;9.988;2022-12-18T04:14:46;100470.34;;;-13.04;100.00
57114;BME280;42994;51.606;9.988;2022-12-18T04:17:15;100472.97;;;-13.12;100.00
57114;BME280;42994;51.606;9.988;2022-12-18T04:19:41;100471.19;;;-13.04;100.00
57114;BME280;42994;51.606;9.988;2022-12-18T04:22:10;100478.03;;;-12.92;100.00
57114;BME280;42994;51.606;9.988;2022-12-18T04:24:42;100484.09;;;-13.04;100.00
57114;BME280;42994;51.606;9.988;2022-12-18T04:27:16;100466.03;;;-13.07;100.00
57114;BME280;42994;51.606;9.988;2022-12-18T04:29:47;100472.25;;;-13.42;100.00
57114;BME280;42994;51.606;9.988;2022-12-18T04:32:17;100471.38;;;-13.39;100.00
57114;BME280;42994;51.606;9.988;2022-12-18T04:34:45;100474.72;;;-13.17;100.00
57114;BME280;42994;51.606;9.988;2022-12-18T04:37:12;100473.75;;;-13.01;100.00
57114;BME280;42994;51.606;9.988;2022-12-18T04:39:39;100475.50;;;-13.01;100.00
57114;BME280;42994;51.606;9.988;2022-12-18T04:42:12;100479.91;;;-13.26;100.00
57114;BME280;42994;51.606;9.988;2022-12-18T04:44:39;100484.28;;;-13.41;100.00
57114;BME280;42994;51.606;9.988;2022-12-18T04:47:05;100486.84;;;-13.31;100.00
57114;BME280;42994;51.606;9.988;2022-12-18T04:49:34;100478.25;;;-13.33;100.00
57114;BME280;42994;51.606;9.988;2022-12-18T04:52:00;100478.97;;;-13.15;100.00
57114;BME280;42994;51.606;9.988;2022-12-18T04:54:27;100472.09;;;-13.12;100.00
57114;BME280;42994;51.606;9.988;2022-12-18T04:56:54;100473.09;;;-13.32;100.00
57114;BME280;42994;51.606;9.988;2022-12-18T04:59:21;100471.28;;;-13.19;100.00
57114;BME280;42994;51.606;9.988;2022-12-18T05:01:47;100472.94;;;-13.07;100.00
57114;BME280;42994;51.606;9.988;2022-12-18T05:04:14;100477.19;;;-12.96;100.00
57114;BME280;42994;51.606;9.988;2022-12-18T05:06:42;100484.16;;;-13.15;100.00
57114;BME280;42994;51.606;9.988;2022-12-18T05:09:08;100495.41;;;-13.32;100.00
57114;BME280;42994;51.606;9.988;2022-12-18T05:11:35;100494.72;;;-13.87;100.00
57114;BME280;42994;51.606;9.988;2022-12-18T05:14:02;100502.41;;;-13.68;100.00
57114;BME280;42994;51.606;9.988;2022-12-18T05:16:28;100494.56;;;-13.31;100.00
57114;BME280;42994;51.606;9.988;2022-12-18T05:18:55;100498.81;;;-13.24;100.00
57114;BME280;42994;51.606;9.988;2022-12-18T05:21:21;100497.09;;;-13.24;100.00
57114;BME280;42994;51.606;9.988;2022-12-18T05:23:49;100499.66;;;-13.22;100.00
57114;BME280;42994;51.606;9.988;2022-12-18T05:26:17;100483.44;;;-13.41;100.00
57114;BME280;42994;51.606;9.988;2022-12-18T05:28:44;100478.19;;;-13.26;100.00
57114;BME280;42994;51.606;9.988;2022-12-18T05:31:11;100471.31;;;-13.28;100.00
57114;BME280;42994;51.606;9.988;2022-12-18T05:33:38;100466.19;;;-13.31;100.00
57114;BME280;42994;51.606;9.988;2022-12-18T05:36:06;100477.31;;;-13.28;100.00
57114;BME280;42994;51.606;9.988;2022-12-18T05:38:35;100479.13;;;-13.45;100.00
57114;BME280;42994;51.606;9.988;2022-12-18T05:41:04;100485.13;;;-13.42;100.00
57114;BME280;42994;51.606;9.988;2022-12-18T05:43:31;100480.00;;;-13.48;100.00
57114;BME280;42994;51.606;9.988;2022-12-18T05:46:03;100479.97;;;-13.36;100.00
57114;BME280;42994;51.606;9.988;2022-12-18T05:48:30;100490.28;;;-13.34;100.00
57114;BME280;42994;51.606;9.988;2022-12-18T05:51:03;100498.03;;;-13.42;100.00
57114;BME280;42994;51.606;9.988;2022-12-18T05:53:30;100493.72;;;-13.37;100.00
57114;BME280;42994;51.606;9.988;2022-12-18T05:56:00;100492.09;;;-13.71;100.00
57114;BME280;42994;51.606;9.988;2022-12-18T05:58:28;100493.81;;;-13.61;100.00
57114;BME280;42994;51.606;9.988;2022-12-18T06:00:55;100492.88;;;-13.42;100.00
57114;BME280;42994;51.606;9.988;2022-12-18T06:03:21;100494.53;;;-13.30;100.00
57114;BME280;42994;51.606;9.988;2022-12-18T06:05:48;100497.19;;;-13.38;100.00
57114;BME280;42994;51.606;9.988;2022-12-18T06:08:15;100494.63;;;-13.55;100.00
57114;BME280;42994;51.606;9.988;2022-12-18T06:10:41;100499.81;;;-13.62;100.00
57114;BME280;42994;51.606;9.988;2022-12-18T06:13:08;100492.88;;;-13.36;100.00
57114;BME280;42994;51.606;9.988;2022-12-18T06:15:37;100511.81;;;-13.41;100.00
57114;BME280;42994;51.606;9.988;2022-12-18T06:18:04;100503.22;;;-13.49;100.00
57114;BME280;42994;51.606;9.988;2022-12-18T06:20:30;100504.06;;;-13.47;100.00
57114;BME280;42994;51.606;9.988;2022-12-18T06:22:57;100491.13;;;-13.35;100.00
57114;BME280;42994;51.606;9.988;2022-12-18T06:25:24;100514.34;;;-13.40;100.00
57114;BME280;42994;51.606;9.988;2022-12-18T06:27:50;100510.88;;;-13.26;100.00
57114;BME280;42994;51.606;9.988;2022-12-18T06:30:17;100510.06;;;-13.44;100.00
57114;BME280;42994;51.606;9.988;2022-12-18T06:32:45;100517.00;;;-13.57;100.00
57114;BME280;42994;51.606;9.988;2022-12-18T06:35:11;100508.38;;;-13.46;100.00
57114;BME280;42994;51.606;9.988;2022-12-18T06:37:38;100495.44;;;-13.34;100.00
57114;BME280;42994;51.606;9.988;2022-12-18T06:40:06;100498.91;;;-13.43;100.00
57114;BME280;42994;51.606;9.988;2022-12-18T06:42:33;100494.59;;;-13.39;100.00
57114;BME280;42994;51.606;9.988;2022-12-18T06:44:59;100502.38;;;-13.50;100.00
57114;BME280;42994;51.606;9.988;2022-12-18T06:47:26;100510.97;;;-13.49;100.00
57114;BME280;42994;51.606;9.988;2022-12-18T06:49:54;100513.50;;;-13.43;100.00
57114;BME280;42994;51.606;9.988;2022-12-18T06:52:20;100508.34;;;-13.36;100.00
57114;BME280;42994;51.606;9.988;2022-12-18T06:54:47;100502.38;;;-13.47;100.00
57114;BME280;42994;51.606;9.988;2022-12-18T06:57:13;100514.44;;;-13.66;100.00
57114;BME280;42994;51.606;9.988;2022-12-18T06:59:40;100509.28;;;-13.77;100.00
57114;BME280;42994;51.606;9.988;2022-12-18T07:02:10;100509.25;;;-13.50;100.00
57114;BME280;42994;51.606;9.988;2022-12-18T07:04:37;100514.38;;;-13.43;100.00
57114;BME280;42994;51.606;9.988;2022-12-18T07:07:05;100523.81;;;-13.40;100.00
57114;BME280;42994;51.606;9.988;2022-12-18T07:09:32;100516.94;;;-13.38;100.00
57114;BME280;42994;51.606;9.988;2022-12-18T07:11:58;100522.97;;;-13.41;100.00
57114;BME280;42994;51.606;9.988;2022-12-18T07:14:25;100528.19;;;-13.62;100.00
57114;BME280;42994;51.606;9.988;2022-12-18T07:16:51;100527.34;;;-13.74;100.00
57114;BME280;42994;51.606;9.988;2022-12-18T07:19:18;100525.66;;;-13.87;100.00
57114;BME280;42994;51.606;9.988;2022-12-18T07:21:45;100531.59;;;-13.60;100.00
57114;BME280;42994;51.606;9.988;2022-12-18T07:24:12;100555.69;;;-13.67;100.00
57114;BME280;42994;51.606;9.988;2022-12-18T07:26:39;100555.69;;;-13.63;100.00
57114;BME280;42994;51.606;9.988;2022-12-18T07:29:06;100559.09;;;-13.50;100.00
57114;BME280;42994;51.606;9.988;2022-12-18T07:31:33;100572.88;;;-13.63;100.00
57114;BME280;42994;51.606;9.988;2022-12-18T07:33:59;100568.53;;;-13.38;100.00
57114;BME280;42994;51.606;9.988;2022-12-18T07:36:26;100560.81;;;-13.58;100.00
57114;BME280;42994;51.606;9.988;2022-12-18T07:38:53;100575.44;;;-13.49;100.00
57114;BME280;42994;51.606;9.988;2022-12-18T07:41:21;100569.44;;;-13.47;100.00
57114;BME280;42994;51.606;9.988;2022-12-18T07:43:47;100576.25;;;-13.40;100.00
57114;BME280;42994;51.606;9.988;2022-12-18T07:46:15;100582.31;;;-13.47;100.00
57114;BME280;42994;51.606;9.988;2022-12-18T07:48:42;100582.31;;;-13.39;100.00
57114;BME280;42994;51.606;9.988;2022-12-18T07:51:12;100585.78;;;-13.66;100.00
57114;BME280;42994;51.606;9.988;2022-12-18T07:53:39;100594.34;;;-13.58;100.00
57114;BME280;42994;51.606;9.988;2022-12-18T07:56:08;100587.47;;;-13.85;100.00
57114;BME280;42994;51.606;9.988;2022-12-18T07:58:37;100585.78;;;-13.79;100.00
57114;BME280;42994;51.606;9.988;2022-12-18T08:01:04;100590.06;;;-13.61;100.00
57114;BME280;42994;51.606;9.988;2022-12-18T08:03:31;100578.00;;;-13.42;100.00
57114;BME280;42994;51.606;9.988;2022-12-18T08:05:59;100562.53;;;-13.49;100.00
57114;BME280;42994;51.606;9.988;2022-12-18T08:08:26;100572.03;;;-13.58;100.00
57114;BME280;42994;51.606;9.988;2022-12-18T08:10:53;100560.84;;;-13.50;100.00
57114;BME280;42994;51.606;9.988;2022-12-18T08:13:19;100559.97;;;-13.51;100.00
57114;BME280;42994;51.606;9.988;2022-12-18T08:15:55;100552.19;;;-13.37;100.00
57114;BME280;42994;51.606;9.988;2022-12-18T08:18:22;100549.66;;;-13.60;100.00
57114;BME280;42994;51.606;9.988;2022-12-18T08:20:49;100550.50;;;-13.47;100.00
57114;BME280;42994;51.606;9.988;2022-12-18T08:23:15;100541.91;;;-13.48;100.00
57114;BME280;42994;51.606;9.988;2022-12-18T08:25:42;100535.91;;;-13.61;100.00
57114;BME280;42994;51.606;9.988;2022-12-18T08:28:09;100542.81;;;-13.61;100.00
57114;BME280;42994;51.606;9.988;2022-12-18T08:30:36;100545.38;;;-13.52;100.00
57114;BME280;42994;51.606;9.988;2022-12-18T08:33:04;100541.03;;;-13.41;100.00
57114;BME280;42994;51.606;9.988;2022-12-18T08:35:34;100530.72;;;-13.39;100.00
57114;BME280;42994;51.606;9.988;2022-12-18T08:38:01;100541.06;;;-13.51;100.00
57114;BME280;42994;51.606;9.988;2022-12-18T08:40:27;100543.63;;;-13.41;100.00
57114;BME280;42994;51.606;9.988;2022-12-18T08:42:54;100541.88;;;-13.42;100.00
57114;BME280;42994;51.606;9.988;2022-12-18T08:45:38;100534.16;;;-13.37;100.00
57114;BME280;42994;51.606;9.988;2022-12-18T08:48:06;100532.41;;;-13.32;100.00
57114;BME280;42994;51.606;9.988;2022-12-18T08:50:33;100522.00;;;-13.17;100.00
57114;BME280;42994;51.606;9.988;2022-12-18T08:53:00;100517.72;;;-13.25;100.00
57114;BME280;42994;51.606;9.988;2022-12-18T08:55:26;100517.72;;;-13.22;100.00
57114;BME280;42994;51.606;9.988;2022-12-18T08:57:53;100516.84;;;-13.18;100.00
57114;BME280;42994;51.606;9.988;2022-12-18T09:00:20;100512.53;;;-13.16;100.00
57114;BME280;42994;51.606;9.988;2022-12-18T09:02:46;100515.94;;;-13.06;100.00
57114;BME280;42994;51.606;9.988;2022-12-18T09:05:15;100508.16;;;-13.02;100.00
57114;BME280;42994;51.606;9.988;2022-12-18T09:07:41;100509.94;;;-13.08;100.00
57114;BME280;42994;51.606;9.988;2022-12-18T09:10:08;100512.44;;;-12.93;100.00
57114;BME280;42994;51.606;9.988;2022-12-18T09:12:35;100507.31;;;-12.98;100.00
57114;BME280;42994;51.606;9.988;2022-12-18T09:15:01;100502.13;;;-12.94;100.00
57114;BME280;42994;51.606;9.988;2022-12-18T09:17:28;100510.69;;;-12.89;100.00
57114;BME280;42994;51.606;9.988;2022-12-18T09:19:55;100513.19;;;-12.68;100.00
57114;BME280;42994;51.606;9.988;2022-12-18T09:22:22;100512.28;;;-12.64;100.00
57114;BME280;42994;51.606;9.988;2022-12-18T09:24:49;100519.97;;;-12.58;100.00
57114;BME280;42994;51.606;9.988;2022-12-18T09:27:16;100516.53;;;-12.57;100.00
57114;BME280;42994;51.606;9.988;2022-12-18T09:29:42;100515.69;;;-12.59;100.00
57114;BME280;42994;51.606;9.988;2022-12-18T09:32:09;100518.16;;;-12.39;100.00
57114;BME280;42994;51.606;9.988;2022-12-18T09:34:35;100521.56;;;-12.33;100.00
57114;BME280;42994;51.606;9.988;2022-12-18T09:37:02;100512.72;;;-12.03;100.00
57114;BME280;42994;51.606;9.988;2022-12-18T09:39:30;100504.63;;;-11.71;100.00
57114;BME280;42994;51.606;9.988;2022-12-18T09:41:58;100511.56;;;-11.71;100.00
57114;BME280;42994;51.606;9.988;2022-12-18T09:44:26;100497.34;;;-11.33;100.00
57114;BME280;42994;51.606;9.988;2022-12-18T09:47:02;100512.22;;;-11.52;100.00
57114;BME280;42994;51.606;9.988;2022-12-18T09:49:36;100498.41;;;-11.50;100.00
57114;BME280;42994;51.606;9.988;2022-12-18T09:52:09;100496.66;;;-11.49;100.00
57114;BME280;42994;51.606;9.988;2022-12-18T09:54:40;100501.56;;;-11.26;100.00
57114;BME280;42994;51.606;9.988;2022-12-18T09:57:12;100509.09;;;-11.06;100.00
57114;BME280;42994;51.606;9.988;2022-12-18T09:59:40;100514.81;;;-10.81;100.00
57114;BME280;42994;51.606;9.988;2022-12-18T10:02:19;100516.16;;;-10.51;100.00
57114;BME280;42994;51.606;9.988;2022-12-18T10:05:04;100513.28;;;-10.32;100.00
57114;BME280;42994;51.606;9.988;2022-12-18T10:07:58;100517.31;;;-10.16;100.00
57114;BME280;42994;51.606;9.988;2022-12-18T10:10:33;100522.19;;;-9.96;100.00
57114;BME280;42994;51.606;9.988;2022-12-18T10:13:09;100525.13;;;-9.64;100.00
57114;BME280;42994;51.606;9.988;2022-12-18T10:15:47;100519.59;;;-9.96;100.00
57114;BME280;42994;51.606;9.988;2022-12-18T10:18:25;100514.78;;;-9.68;100.00
57114;BME280;42994;51.606;9.988;2022-12-18T10:21:03;100513.59;;;-9.98;100.00
57114;BME280;42994;51.606;9.988;2022-12-18T10:23:39;100510.56;;;-9.73;100.00
57114;BME280;42994;51.606;9.988;2022-12-18T10:26:12;100506.50;;;-9.88;100.00
57114;BME280;42994;51.606;9.988;2022-12-18T10:28:40;100509.66;;;-9.71;100.00
57114;BME280;42994;51.606;9.988;2022-12-18T10:31:07;100506.03;;;-9.62;100.00
57114;BME280;42994;51.606;9.988;2022-12-18T10:33:38;100513.41;;;-9.39;100.00
57114;BME280;42994;51.606;9.988;2022-12-18T10:36:07;100504.88;;;-9.45;100.00
57114;BME280;42994;51.606;9.988;2022-12-18T10:38:33;100509.72;;;-9.27;100.00
57114;BME280;42994;51.606;9.988;2022-12-18T10:41:02;100494.88;;;-9.20;100.00
57114;BME280;42994;51.606;9.988;2022-12-18T10:43:32;100499.81;;;-9.08;100.00
57114;BME280;42994;51.606;9.988;2022-12-18T10:46:03;100501.47;;;-9.04;100.00
57114;BME280;42994;51.606;9.988;2022-12-18T10:48:31;100494.19;;;-8.86;100.00
57114;BME280;42994;51.606;9.988;2022-12-18T10:50:59;100498.16;;;-9.11;100.00
57114;BME280;42994;51.606;9.988;2022-12-18T10:53:28;100498.88;;;-9.05;100.00
57114;BME280;42994;51.606;9.988;2022-12-18T10:55:59;100506.94;;;-8.74;100.00
57114;BME280;42994;51.606;9.988;2022-12-18T10:58:27;100507.63;;;-9.08;100.00
57114;BME280;42994;51.606;9.988;2022-12-18T11:01:06;100500.63;;;-9.04;100.00
57114;BME280;42994;51.606;9.988;2022-12-18T11:03:34;100492.16;;;-9.14;100.00
57114;BME280;42994;51.606;9.988;2022-12-18T11:06:04;100486.81;;;-9.06;100.00
57114;BME280;42994;51.606;9.988;2022-12-18T11:08:31;100475.56;;;-9.07;100.00
57114;BME280;42994;51.606;9.988;2022-12-18T11:10:58;100469.91;;;-8.85;100.00
57114;BME280;42994;51.606;9.988;2022-12-18T11:13:26;100465.59;;;-8.86;100.00
57114;BME280;42994;51.606;9.988;2022-12-18T11:15:54;100458.41;;;-8.75;100.00
57114;BME280;42994;51.606;9.988;2022-12-18T11:18:26;100452.22;;;-8.70;100.00
57114;BME280;42994;51.606;9.988;2022-12-18T11:20:55;100446.88;;;-8.63;100.00
57114;BME280;42994;51.606;9.988;2022-12-18T11:23:24;100451.72;;;-8.46;100.00
57114;BME280;42994;51.606;9.988;2022-12-18T11:25:53;100464.09;;;-8.23;100.00
57114;BME280;42994;51.606;9.988;2022-12-18T11:28:35;100461.03;;;-8.03;100.00
57114;BME280;42994;51.606;9.988;2022-12-18T11:31:15;100460.88;;;-7.97;100.00
57114;BME280;42994;51.606;9.988;2022-12-18T11:33:48;100454.28;;;-7.78;100.00
57114;BME280;42994;51.606;9.988;2022-12-18T11:36:18;100443.31;;;-7.89;100.00
57114;BME280;42994;51.606;9.988;2022-12-18T11:38:46;100442.88;;;-7.72;100.00
57114;BME280;42994;51.606;9.988;2022-12-18T11:41:21;100433.44;;;-7.45;100.00
57114;BME280;42994;51.606;9.988;2022-12-18T11:44:11;100433.81;;;-7.57;100.00
57114;BME280;42994;51.606;9.988;2022-12-18T11:46:45;100414.00;;;-7.63;100.00
57114;BME280;42994;51.606;9.988;2022-12-18T11:49:20;100416.66;;;-7.35;100.00
57114;BME280;42994;51.606;9.988;2022-12-18T11:51:51;100414.75;;;-7.28;100.00
57114;BME280;42994;51.606;9.988;2022-12-18T11:54:20;100399.13;;;-7.28;100.00
57114;BME280;42994;51.606;9.988;2022-12-18T11:56:49;100407.47;;;-7.17;100.00
57114;BME280;42994;51.606;9.988;2022-12-18T11:59:27;100417.59;;;-7.06;100.00
57114;BME280;42994;51.606;9.988;2022-12-18T12:02:03;100415.69;;;-7.01;100.00
57114;BME280;42994;51.606;9.988;2022-12-18T12:05:00;100413.50;;;-7.15;100.00
57114;BME280;42994;51.606;9.988;2022-12-18T12:07:38;100411.41;;;-7.03;100.00
57114;BME280;42994;51.606;9.988;2022-12-18T12:10:20;100407.69;;;-6.94;100.00
57114;BME280;42994;51.606;9.988;2022-12-18T12:13:04;100399.19;;;-7.01;100.00
57114;BME280;42994;51.606;9.988;2022-12-18T12:15:43;100392.13;;;-6.98;100.00
57114;BME280;42994;51.606;9.988;2022-12-18T12:18:23;100385.88;;;-6.92;100.00
57114;BME280;42994;51.606;9.988;2022-12-18T12:21:01;100377.25;;;-6.94;100.00
57114;BME280;42994;51.606;9.988;2022-12-18T12:23:38;100378.13;;;-6.93;100.00
57114;BME280;42994;51.606;9.988;2022-12-18T12:26:07;100376.03;;;-6.82;100.00
57114;BME280;42994;51.606;9.988;2022-12-18T12:28:56;100368.09;;;-6.79;100.00
57114;BME280;42994;51.606;9.988;2022-12-18T12:31:37;100371.47;;;-6.76;100.00
57114;BME280;42994;51.606;9.988;2022-12-18T12:34:14;100366.38;;;-6.79;100.00
57114;BME280;42994;51.606;9.988;2022-12-18T12:36:52;100350.75;;;-6.80;100.00
57114;BME280;42994;51.606;9.988;2022-12-18T12:39:26;100351.53;;;-6.77;100.00
57114;BME280;42994;51.606;9.988;2022-12-18T12:41:54;100360.38;;;-6.82;100.00
57114;BME280;42994;51.606;9.988;2022-12-18T12:44:42;100366.44;;;-6.82;100.00
57114;BME280;42994;51.606;9.988;2022-12-18T12:47:14;100353.53;;;-6.86;100.00